sensor_id;sensor_type;location;lat;lon;timestamp;P1;durP1;ratioP1;P2;durP2;ratioP2
4766;SDS011;2397;53.576;9.746;2023-02-22T00:00:41;42.87;;;15.33;;
4766;SDS011;2397;53.576;9.746;2023-02-22T00:03:09;47.53;;;15.60;;
4766;SDS011;2397;53.576;9.746;2023-02-22T00:05:36;36.83;;;14.07;;
4766;SDS011;2397;53.576;9.746;2023-02-22T00:08:06;39.20;;;12.93;;
4766;SDS011;2397;53.576;9.746;2023-02-22T00:10:34;48.07;;;15.60;;
4766;SDS011;2397;53.576;9.746;2023-02-22T00:13:04;39.60;;;13.57;;
4766;SDS011;2397;53.576;9.746;2023-02-22T00:15:33;42.37;;;13.57;;
4766;SDS011;2397;53.576;9.746;2023-02-22T00:18:00;37.77;;;12.80;;
4766;SDS011;2397;53.576;9.746;2023-02-22T00:20:27;42.03;;;14.90;;
4766;SDS011;2397;53.576;9.746;2023-02-22T00:22:54;45.23;;;14.93;;
4766;SDS011;2397;53.576;9.746;2023-02-22T00:25:22;39.70;;;14.90;;
4766;SDS011;2397;53.576;9.746;2023-02-22T00:27:50;51.93;;;15.37;;
4766;SDS011;2397;53.576;9.746;2023-02-22T00:30:19;44.33;;;14.10;;
4766;SDS011;2397;53.576;9.746;2023-02-22T00:32:49;51.23;;;15.30;;
4766;SDS011;2397;53.576;9.746;2023-02-22T00:35:16;44.50;;;14.03;;
4766;SDS011;2397;53.576;9.746;2023-02-22T00:37:49;41.77;;;14.77;;
4766;SDS011;2397;53.576;9.746;2023-02-22T00:40:17;44.43;;;15.00;;
4766;SDS011;2397;53.576;9.746;2023-02-22T00:42:45;42.50;;;14.40;;
4766;SDS011;2397;53.576;9.746;2023-02-22T00:45:12;38.90;;;14.93;;
4766;SDS011;2397;53.576;9.746;2023-02-22T00:47:41;40.17;;;13.93;;
4766;SDS011;2397;53.576;9.746;2023-02-22T00:50:08;40.03;;;12.67;;
4766;SDS011;2397;53.576;9.746;2023-02-22T00:52:35;43.47;;;16.23;;
4766;SDS011;2397;53.576;9.746;2023-02-22T00:55:02;42.30;;;13.57;;
4766;SDS011;2397;53.576;9.746;2023-02-22T00:57:32;37.00;;;12.57;;
4766;SDS011;2397;53.576;9.746;2023-02-22T01:00:03;35.33;;;12.23;;
4766;SDS011;2397;53.576;9.746;2023-02-22T01:02:37;42.63;;;13.20;;
4766;SDS011;2397;53.576;9.746;2023-02-22T01:05:06;31.27;;;12.40;;
4766;SDS011;2397;53.576;9.746;2023-02-22T01:07:33;39.57;;;13.43;;
4766;SDS011;2397;53.576;9.746;2023-02-22T01:10:00;31.90;;;13.60;;
4766;SDS011;2397;53.576;9.746;2023-02-22T01:12:28;43.20;;;15.40;;
4766;SDS011;2397;53.576;9.746;2023-02-22T01:14:55;31.47;;;14.10;;
4766;SDS011;2397;53.576;9.746;2023-02-22T01:17:24;29.60;;;12.67;;
4766;SDS011;2397;53.576;9.746;2023-02-22T01:19:51;34.23;;;14.00;;
4766;SDS011;2397;53.576;9.746;2023-02-22T01:22:19;37.87;;;13.83;;
4766;SDS011;2397;53.576;9.746;2023-02-22T01:24:47;34.80;;;14.10;;
4766;SDS011;2397;53.576;9.746;2023-02-22T01:27:14;30.50;;;12.60;;
4766;SDS011;2397;53.576;9.746;2023-02-22T01:29:41;31.90;;;13.57;;
4766;SDS011;2397;53.576;9.746;2023-02-22T01:32:07;37.20;;;14.20;;
4766;SDS011;2397;53.576;9.746;2023-02-22T01:34:34;32.80;;;13.80;;
4766;SDS011;2397;53.576;9.746;2023-02-22T01:37:01;31.13;;;13.63;;
4766;SDS011;2397;53.576;9.746;2023-02-22T01:39:27;36.73;;;15.10;;
4766;SDS011;2397;53.576;9.746;2023-02-22T01:41:53;44.73;;;16.63;;
4766;SDS011;2397;53.576;9.746;2023-02-22T01:44:28;56.87;;;18.90;;
4766;SDS011;2397;53.576;9.746;2023-02-22T01:46:57;54.60;;;18.50;;
4766;SDS011;2397;53.576;9.746;2023-02-22T01:49:26;53.43;;;18.33;;
4766;SDS011;2397;53.576;9.746;2023-02-22T01:51:58;52.67;;;16.90;;
4766;SDS011;2397;53.576;9.746;2023-02-22T01:54:30;50.50;;;17.47;;
4766;SDS011;2397;53.576;9.746;2023-02-22T01:57:05;53.57;;;18.20;;
4766;SDS011;2397;53.576;9.746;2023-02-22T01:59:59;65.93;;;19.87;;
4766;SDS011;2397;53.576;9.746;2023-02-22T02:03:08;69.93;;;19.30;;
4766;SDS011;2397;53.576;9.746;2023-02-22T02:05:37;61.63;;;18.83;;
4766;SDS011;2397;53.576;9.746;2023-02-22T02:08:09;66.93;;;20.80;;
4766;SDS011;2397;53.576;9.746;2023-02-22T02:10:46;49.20;;;18.43;;
4766;SDS011;2397;53.576;9.746;2023-02-22T02:13:14;57.80;;;18.23;;
4766;SDS011;2397;53.576;9.746;2023-02-22T02:15:41;60.20;;;19.60;;
4766;SDS011;2397;53.576;9.746;2023-02-22T02:18:08;66.63;;;18.90;;
4766;SDS011;2397;53.576;9.746;2023-02-22T02:23:45;59.33;;;17.67;;
4766;SDS011;2397;53.576;9.746;2023-02-22T02:29:34;58.00;;;18.90;;
4766;SDS011;2397;53.576;9.746;2023-02-22T02:41:08;65.17;;;16.83;;
4766;SDS011;2397;53.576;9.746;2023-02-22T02:49:35;51.40;;;15.93;;
4766;SDS011;2397;53.576;9.746;2023-02-22T02:52:09;49.07;;;15.23;;
4766;SDS011;2397;53.576;9.746;2023-02-22T02:54:39;39.43;;;15.80;;
4766;SDS011;2397;53.576;9.746;2023-02-22T02:57:07;49.07;;;16.27;;
4766;SDS011;2397;53.576;9.746;2023-02-22T02:59:35;46.07;;;15.47;;
4766;SDS011;2397;53.576;9.746;2023-02-22T03:02:10;42.13;;;14.97;;
4766;SDS011;2397;53.576;9.746;2023-02-22T03:13:17;45.37;;;14.27;;
4766;SDS011;2397;53.576;9.746;2023-02-22T03:16:03;40.27;;;16.17;;
4766;SDS011;2397;53.576;9.746;2023-02-22T03:18:57;47.27;;;15.77;;
4766;SDS011;2397;53.576;9.746;2023-02-22T03:21:44;43.43;;;15.17;;
4766;SDS011;2397;53.576;9.746;2023-02-22T03:26:48;45.33;;;15.60;;
4766;SDS011;2397;53.576;9.746;2023-02-22T03:29:19;38.57;;;16.20;;
4766;SDS011;2397;53.576;9.746;2023-02-22T03:31:50;50.47;;;16.43;;
4766;SDS011;2397;53.576;9.746;2023-02-22T03:34:32;49.10;;;16.33;;
4766;SDS011;2397;53.576;9.746;2023-02-22T03:37:25;44.80;;;17.77;;
4766;SDS011;2397;53.576;9.746;2023-02-22T03:39:54;51.63;;;16.70;;
4766;SDS011;2397;53.576;9.746;2023-02-22T03:42:28;50.87;;;17.50;;
4766;SDS011;2397;53.576;9.746;2023-02-22T03:44:57;44.63;;;16.20;;
4766;SDS011;2397;53.576;9.746;2023-02-22T03:47:29;43.57;;;17.10;;
4766;SDS011;2397;53.576;9.746;2023-02-22T03:52:40;48.50;;;17.53;;
4766;SDS011;2397;53.576;9.746;2023-02-22T03:55:09;55.20;;;15.77;;
4766;SDS011;2397;53.576;9.746;2023-02-22T03:57:38;46.13;;;16.97;;
4766;SDS011;2397;53.576;9.746;2023-02-22T04:00:09;45.17;;;16.93;;
4766;SDS011;2397;53.576;9.746;2023-02-22T04:02:37;49.67;;;15.67;;
4766;SDS011;2397;53.576;9.746;2023-02-22T04:05:04;44.77;;;16.00;;
4766;SDS011;2397;53.576;9.746;2023-02-22T04:07:30;50.40;;;16.37;;
4766;SDS011;2397;53.576;9.746;2023-02-22T04:09:57;49.83;;;16.80;;
4766;SDS011;2397;53.576;9.746;2023-02-22T04:12:23;49.03;;;15.17;;
4766;SDS011;2397;53.576;9.746;2023-02-22T04:14:49;52.30;;;15.90;;
4766;SDS011;2397;53.576;9.746;2023-02-22T04:17:16;49.73;;;16.00;;
4766;SDS011;2397;53.576;9.746;2023-02-22T04:19:42;49.80;;;16.10;;
4766;SDS011;2397;53.576;9.746;2023-02-22T04:22:10;50.93;;;16.63;;
4766;SDS011;2397;53.576;9.746;2023-02-22T04:24:37;49.50;;;17.23;;
4766;SDS011;2397;53.576;9.746;2023-02-22T04:27:03;65.60;;;17.73;;
4766;SDS011;2397;53.576;9.746;2023-02-22T04:29:29;60.97;;;17.57;;
4766;SDS011;2397;53.576;9.746;2023-02-22T04:31:56;51.57;;;16.10;;
4766;SDS011;2397;53.576;9.746;2023-02-22T04:34:22;56.37;;;17.63;;
4766;SDS011;2397;53.576;9.746;2023-02-22T04:36:49;62.80;;;17.43;;
4766;SDS011;2397;53.576;9.746;2023-02-22T04:39:15;71.73;;;18.17;;
4766;SDS011;2397;53.576;9.746;2023-02-22T04:41:42;57.33;;;18.63;;
4766;SDS011;2397;53.576;9.746;2023-02-22T04:44:08;69.57;;;18.10;;
4766;SDS011;2397;53.576;9.746;2023-02-22T04:46:35;63.57;;;17.27;;
4766;SDS011;2397;53.576;9.746;2023-02-22T04:49:01;77.80;;;19.60;;
4766;SDS011;2397;53.576;9.746;2023-02-22T04:51:28;65.70;;;17.63;;
4766;SDS011;2397;53.576;9.746;2023-02-22T04:53:54;54.97;;;17.10;;
4766;SDS011;2397;53.576;9.746;2023-02-22T04:56:21;64.57;;;17.60;;
4766;SDS011;2397;53.576;9.746;2023-02-22T04:58:48;61.93;;;18.03;;
4766;SDS011;2397;53.576;9.746;2023-02-22T05:01:14;65.47;;;18.00;;
4766;SDS011;2397;53.576;9.746;2023-02-22T05:03:42;63.67;;;18.23;;
4766;SDS011;2397;53.576;9.746;2023-02-22T05:06:09;70.10;;;19.70;;
4766;SDS011;2397;53.576;9.746;2023-02-22T05:08:37;72.50;;;18.63;;
4766;SDS011;2397;53.576;9.746;2023-02-22T05:11:04;100.53;;;20.73;;
4766;SDS011;2397;53.576;9.746;2023-02-22T05:13:30;79.10;;;20.40;;
4766;SDS011;2397;53.576;9.746;2023-02-22T05:15:57;73.40;;;20.30;;
4766;SDS011;2397;53.576;9.746;2023-02-22T05:18:23;69.07;;;20.23;;
4766;SDS011;2397;53.576;9.746;2023-02-22T05:20:50;69.00;;;20.30;;
4766;SDS011;2397;53.576;9.746;2023-02-22T05:23:16;77.80;;;18.40;;
4766;SDS011;2397;53.576;9.746;2023-02-22T05:25:42;74.03;;;18.87;;
4766;SDS011;2397;53.576;9.746;2023-02-22T05:28:11;78.60;;;22.50;;
4766;SDS011;2397;53.576;9.746;2023-02-22T05:30:39;103.60;;;21.97;;
4766;SDS011;2397;53.576;9.746;2023-02-22T05:33:06;82.07;;;20.20;;
4766;SDS011;2397;53.576;9.746;2023-02-22T05:35:33;72.10;;;21.30;;
4766;SDS011;2397;53.576;9.746;2023-02-22T05:37:59;75.83;;;20.63;;
4766;SDS011;2397;53.576;9.746;2023-02-22T05:40:28;95.20;;;22.10;;
4766;SDS011;2397;53.576;9.746;2023-02-22T05:42:55;72.27;;;21.20;;
4766;SDS011;2397;53.576;9.746;2023-02-22T05:45:23;83.20;;;21.83;;
4766;SDS011;2397;53.576;9.746;2023-02-22T05:47:52;70.20;;;21.10;;
4766;SDS011;2397;53.576;9.746;2023-02-22T05:50:19;71.67;;;20.47;;
4766;SDS011;2397;53.576;9.746;2023-02-22T05:52:47;65.10;;;22.33;;
4766;SDS011;2397;53.576;9.746;2023-02-22T05:55:14;89.37;;;18.80;;
4766;SDS011;2397;53.576;9.746;2023-02-22T05:57:42;68.03;;;19.20;;
4766;SDS011;2397;53.576;9.746;2023-02-22T06:00:10;79.03;;;20.37;;
4766;SDS011;2397;53.576;9.746;2023-02-22T06:02:41;79.63;;;20.63;;
4766;SDS011;2397;53.576;9.746;2023-02-22T06:05:07;69.80;;;19.47;;
4766;SDS011;2397;53.576;9.746;2023-02-22T06:07:34;80.63;;;21.27;;
4766;SDS011;2397;53.576;9.746;2023-02-22T06:10:00;65.50;;;20.27;;
4766;SDS011;2397;53.576;9.746;2023-02-22T06:12:26;77.70;;;21.83;;
4766;SDS011;2397;53.576;9.746;2023-02-22T06:14:53;72.97;;;20.50;;
4766;SDS011;2397;53.576;9.746;2023-02-22T06:17:19;78.60;;;20.43;;
4766;SDS011;2397;53.576;9.746;2023-02-22T06:19:46;65.50;;;18.30;;
4766;SDS011;2397;53.576;9.746;2023-02-22T06:22:15;75.20;;;22.43;;
4766;SDS011;2397;53.576;9.746;2023-02-22T06:24:43;71.83;;;21.13;;
4766;SDS011;2397;53.576;9.746;2023-02-22T06:27:09;75.30;;;22.07;;
4766;SDS011;2397;53.576;9.746;2023-02-22T06:29:36;75.50;;;21.87;;
4766;SDS011;2397;53.576;9.746;2023-02-22T06:32:03;73.00;;;22.23;;
4766;SDS011;2397;53.576;9.746;2023-02-22T06:34:29;58.87;;;19.50;;
4766;SDS011;2397;53.576;9.746;2023-02-22T06:36:56;65.40;;;21.70;;
4766;SDS011;2397;53.576;9.746;2023-02-22T06:39:25;64.83;;;21.07;;
4766;SDS011;2397;53.576;9.746;2023-02-22T06:41:51;63.47;;;21.23;;
4766;SDS011;2397;53.576;9.746;2023-02-22T06:44:20;57.13;;;20.30;;
4766;SDS011;2397;53.576;9.746;2023-02-22T06:46:47;79.87;;;23.30;;
4766;SDS011;2397;53.576;9.746;2023-02-22T06:49:17;65.47;;;22.10;;
4766;SDS011;2397;53.576;9.746;2023-02-22T06:51:44;70.23;;;22.67;;
4766;SDS011;2397;53.576;9.746;2023-02-22T06:54:11;66.53;;;21.97;;
4766;SDS011;2397;53.576;9.746;2023-02-22T06:56:38;73.73;;;22.33;;
4766;SDS011;2397;53.576;9.746;2023-02-22T06:59:04;75.33;;;23.80;;
4766;SDS011;2397;53.576;9.746;2023-02-22T07:01:31;71.00;;;22.83;;
4766;SDS011;2397;53.576;9.746;2023-02-22T07:03:57;72.87;;;21.83;;
4766;SDS011;2397;53.576;9.746;2023-02-22T07:06:23;76.80;;;22.80;;
4766;SDS011;2397;53.576;9.746;2023-02-22T07:08:50;71.67;;;21.00;;
4766;SDS011;2397;53.576;9.746;2023-02-22T07:11:16;63.53;;;21.37;;
4766;SDS011;2397;53.576;9.746;2023-02-22T07:13:43;68.30;;;22.30;;
4766;SDS011;2397;53.576;9.746;2023-02-22T07:16:09;70.20;;;23.07;;
4766;SDS011;2397;53.576;9.746;2023-02-22T07:18:36;71.97;;;23.60;;
4766;SDS011;2397;53.576;9.746;2023-02-22T07:21:03;73.50;;;23.87;;
4766;SDS011;2397;53.576;9.746;2023-02-22T07:23:30;66.83;;;23.43;;
4766;SDS011;2397;53.576;9.746;2023-02-22T07:25:58;75.43;;;23.47;;
4766;SDS011;2397;53.576;9.746;2023-02-22T07:28:26;83.70;;;26.30;;
4766;SDS011;2397;53.576;9.746;2023-02-22T07:30:52;79.30;;;24.90;;
4766;SDS011;2397;53.576;9.746;2023-02-22T07:33:18;83.17;;;24.47;;
4766;SDS011;2397;53.576;9.746;2023-02-22T07:35:46;67.60;;;25.60;;
4766;SDS011;2397;53.576;9.746;2023-02-22T07:38:15;70.60;;;24.20;;
4766;SDS011;2397;53.576;9.746;2023-02-22T07:40:43;81.10;;;25.97;;
4766;SDS011;2397;53.576;9.746;2023-02-22T07:43:19;80.40;;;24.77;;
4766;SDS011;2397;53.576;9.746;2023-02-22T07:45:48;82.57;;;25.10;;
4766;SDS011;2397;53.576;9.746;2023-02-22T07:48:16;73.20;;;26.90;;
4766;SDS011;2397;53.576;9.746;2023-02-22T07:50:44;71.70;;;24.30;;
4766;SDS011;2397;53.576;9.746;2023-02-22T07:53:12;73.13;;;24.30;;
4766;SDS011;2397;53.576;9.746;2023-02-22T07:55:40;68.70;;;25.40;;
4766;SDS011;2397;53.576;9.746;2023-02-22T07:58:07;82.27;;;24.57;;
4766;SDS011;2397;53.576;9.746;2023-02-22T08:00:35;74.03;;;24.73;;
4766;SDS011;2397;53.576;9.746;2023-02-22T08:03:08;84.00;;;24.40;;
4766;SDS011;2397;53.576;9.746;2023-02-22T08:05:37;70.40;;;24.57;;
4766;SDS011;2397;53.576;9.746;2023-02-22T08:08:05;62.90;;;22.17;;
4766;SDS011;2397;53.576;9.746;2023-02-22T08:10:33;60.57;;;22.90;;
4766;SDS011;2397;53.576;9.746;2023-02-22T08:13:01;60.00;;;23.97;;
4766;SDS011;2397;53.576;9.746;2023-02-22T08:15:30;60.20;;;22.13;;
4766;SDS011;2397;53.576;9.746;2023-02-22T08:17:58;71.03;;;25.60;;
4766;SDS011;2397;53.576;9.746;2023-02-22T08:20:26;63.77;;;24.97;;
4766;SDS011;2397;53.576;9.746;2023-02-22T08:22:53;58.20;;;22.83;;
4766;SDS011;2397;53.576;9.746;2023-02-22T08:25:21;63.77;;;23.27;;
4766;SDS011;2397;53.576;9.746;2023-02-22T08:27:50;69.50;;;23.33;;
4766;SDS011;2397;53.576;9.746;2023-02-22T08:30:23;55.80;;;22.07;;
4766;SDS011;2397;53.576;9.746;2023-02-22T08:32:50;67.13;;;25.60;;
4766;SDS011;2397;53.576;9.746;2023-02-22T08:35:18;63.23;;;20.90;;
4766;SDS011;2397;53.576;9.746;2023-02-22T08:37:47;56.10;;;23.10;;
4766;SDS011;2397;53.576;9.746;2023-02-22T08:40:15;60.93;;;20.90;;
4766;SDS011;2397;53.576;9.746;2023-02-22T08:42:45;54.90;;;21.60;;
4766;SDS011;2397;53.576;9.746;2023-02-22T08:45:11;55.20;;;20.80;;
4766;SDS011;2397;53.576;9.746;2023-02-22T08:47:39;55.43;;;21.17;;
4766;SDS011;2397;53.576;9.746;2023-02-22T08:50:06;44.67;;;19.53;;
4766;SDS011;2397;53.576;9.746;2023-02-22T08:52:33;49.90;;;21.10;;
4766;SDS011;2397;53.576;9.746;2023-02-22T08:55:00;44.30;;;20.00;;
4766;SDS011;2397;53.576;9.746;2023-02-22T08:57:26;43.30;;;19.20;;
4766;SDS011;2397;53.576;9.746;2023-02-22T08:59:53;39.10;;;18.87;;
4766;SDS011;2397;53.576;9.746;2023-02-22T09:02:20;45.67;;;19.63;;
4766;SDS011;2397;53.576;9.746;2023-02-22T09:04:47;44.20;;;19.23;;
4766;SDS011;2397;53.576;9.746;2023-02-22T09:07:15;46.43;;;19.53;;
4766;SDS011;2397;53.576;9.746;2023-02-22T09:09:42;45.93;;;18.83;;
4766;SDS011;2397;53.576;9.746;2023-02-22T09:12:10;37.33;;;17.43;;
4766;SDS011;2397;53.576;9.746;2023-02-22T09:14:37;41.20;;;18.00;;
4766;SDS011;2397;53.576;9.746;2023-02-22T09:17:03;39.80;;;18.60;;
4766;SDS011;2397;53.576;9.746;2023-02-22T09:19:31;47.40;;;19.97;;
4766;SDS011;2397;53.576;9.746;2023-02-22T09:21:57;40.00;;;18.77;;
4766;SDS011;2397;53.576;9.746;2023-02-22T09:24:27;36.60;;;18.17;;
4766;SDS011;2397;53.576;9.746;2023-02-22T09:26:54;38.13;;;18.50;;
4766;SDS011;2397;53.576;9.746;2023-02-22T09:29:21;42.83;;;18.70;;
4766;SDS011;2397;53.576;9.746;2023-02-22T09:31:50;39.83;;;18.27;;
4766;SDS011;2397;53.576;9.746;2023-02-22T09:34:19;31.60;;;16.10;;
4766;SDS011;2397;53.576;9.746;2023-02-22T09:36:48;37.43;;;18.00;;
4766;SDS011;2397;53.576;9.746;2023-02-22T09:39:16;33.67;;;17.00;;
4766;SDS011;2397;53.576;9.746;2023-02-22T09:42:03;35.50;;;16.07;;
4766;SDS011;2397;53.576;9.746;2023-02-22T09:47:13;28.93;;;15.97;;
4766;SDS011;2397;53.576;9.746;2023-02-22T09:49:47;33.73;;;15.17;;
4766;SDS011;2397;53.576;9.746;2023-02-22T09:52:29;32.10;;;15.70;;
4766;SDS011;2397;53.576;9.746;2023-02-22T09:55:06;30.50;;;15.37;;
4766;SDS011;2397;53.576;9.746;2023-02-22T09:57:38;29.50;;;14.07;;
4766;SDS011;2397;53.576;9.746;2023-02-22T10:05:43;33.67;;;15.87;;
4766;SDS011;2397;53.576;9.746;2023-02-22T10:08:15;28.80;;;14.60;;
4766;SDS011;2397;53.576;9.746;2023-02-22T10:10:44;25.23;;;13.70;;
4766;SDS011;2397;53.576;9.746;2023-02-22T10:22:15;26.77;;;15.47;;
4766;SDS011;2397;53.576;9.746;2023-02-22T10:27:38;25.60;;;16.30;;
4766;SDS011;2397;53.576;9.746;2023-02-22T10:30:13;28.47;;;15.97;;
4766;SDS011;2397;53.576;9.746;2023-02-22T10:35:40;25.20;;;15.33;;
4766;SDS011;2397;53.576;9.746;2023-02-22T10:38:12;28.90;;;17.10;;
4766;SDS011;2397;53.576;9.746;2023-02-22T10:40:49;25.57;;;14.73;;
4766;SDS011;2397;53.576;9.746;2023-02-22T10:43:27;29.67;;;16.10;;
4766;SDS011;2397;53.576;9.746;2023-02-22T10:45:54;22.70;;;15.37;;
4766;SDS011;2397;53.576;9.746;2023-02-22T10:48:25;27.60;;;16.23;;
4766;SDS011;2397;53.576;9.746;2023-02-22T10:50:59;31.40;;;17.60;;
4766;SDS011;2397;53.576;9.746;2023-02-22T10:53:27;26.93;;;15.90;;
4766;SDS011;2397;53.576;9.746;2023-02-22T10:56:11;29.63;;;17.80;;
4766;SDS011;2397;53.576;9.746;2023-02-22T10:58:46;27.00;;;16.37;;
4766;SDS011;2397;53.576;9.746;2023-02-22T11:01:21;23.90;;;15.73;;
4766;SDS011;2397;53.576;9.746;2023-02-22T11:03:58;27.40;;;16.73;;
4766;SDS011;2397;53.576;9.746;2023-02-22T11:06:40;23.60;;;15.30;;
4766;SDS011;2397;53.576;9.746;2023-02-22T11:09:11;27.13;;;13.87;;
4766;SDS011;2397;53.576;9.746;2023-02-22T11:11:48;23.07;;;14.87;;
4766;SDS011;2397;53.576;9.746;2023-02-22T11:14:26;26.23;;;14.37;;
4766;SDS011;2397;53.576;9.746;2023-02-22T11:16:55;26.90;;;15.97;;
4766;SDS011;2397;53.576;9.746;2023-02-22T11:19:24;23.67;;;15.10;;
4766;SDS011;2397;53.576;9.746;2023-02-22T11:22:09;26.30;;;14.83;;
4766;SDS011;2397;53.576;9.746;2023-02-22T11:24:43;23.87;;;14.97;;
4766;SDS011;2397;53.576;9.746;2023-02-22T11:29:54;27.20;;;14.67;;
4766;SDS011;2397;53.576;9.746;2023-02-22T11:32:33;25.30;;;16.47;;
4766;SDS011;2397;53.576;9.746;2023-02-22T11:37:53;25.27;;;15.63;;
4766;SDS011;2397;53.576;9.746;2023-02-22T11:40:34;24.53;;;15.83;;
4766;SDS011;2397;53.576;9.746;2023-02-22T11:43:16;30.10;;;16.20;;
4766;SDS011;2397;53.576;9.746;2023-02-22T11:46:03;27.07;;;15.90;;
4766;SDS011;2397;53.576;9.746;2023-02-22T11:48:34;27.70;;;16.10;;
4766;SDS011;2397;53.576;9.746;2023-02-22T11:51:13;24.13;;;16.00;;
4766;SDS011;2397;53.576;9.746;2023-02-22T11:54:05;24.93;;;16.23;;
4766;SDS011;2397;53.576;9.746;2023-02-22T11:56:41;22.63;;;14.83;;
4766;SDS011;2397;53.576;9.746;2023-02-22T11:59:22;27.20;;;15.60;;
4766;SDS011;2397;53.576;9.746;2023-02-22T12:04:47;21.50;;;14.10;;
4766;SDS011;2397;53.576;9.746;2023-02-22T12:10:24;24.20;;;15.40;;
4766;SDS011;2397;53.576;9.746;2023-02-22T12:13:21;22.83;;;14.50;;
4766;SDS011;2397;53.576;9.746;2023-02-22T12:16:02;27.03;;;15.73;;
4766;SDS011;2397;53.576;9.746;2023-02-22T12:18:54;20.70;;;13.10;;
4766;SDS011;2397;53.576;9.746;2023-02-22T12:21:34;19.17;;;12.57;;
4766;SDS011;2397;53.576;9.746;2023-02-22T12:24:05;19.20;;;12.20;;
4766;SDS011;2397;53.576;9.746;2023-02-22T12:26:39;16.03;;;12.47;;
4766;SDS011;2397;53.576;9.746;2023-02-22T12:32:13;20.50;;;11.30;;
4766;SDS011;2397;53.576;9.746;2023-02-22T12:34:46;17.93;;;13.10;;
4766;SDS011;2397;53.576;9.746;2023-02-22T12:40:04;19.30;;;11.63;;
4766;SDS011;2397;53.576;9.746;2023-02-22T12:42:41;22.63;;;11.00;;
4766;SDS011;2397;53.576;9.746;2023-02-22T12:45:19;19.10;;;12.50;;
4766;SDS011;2397;53.576;9.746;2023-02-22T12:50:43;18.33;;;11.77;;
4766;SDS011;2397;53.576;9.746;2023-02-22T12:53:25;18.43;;;12.07;;
4766;SDS011;2397;53.576;9.746;2023-02-22T12:55:59;19.70;;;12.13;;
4766;SDS011;2397;53.576;9.746;2023-02-22T12:58:45;19.93;;;12.30;;
4766;SDS011;2397;53.576;9.746;2023-02-22T13:01:20;19.77;;;11.80;;
4766;SDS011;2397;53.576;9.746;2023-02-22T13:03:50;17.10;;;11.37;;
4766;SDS011;2397;53.576;9.746;2023-02-22T13:09:18;18.67;;;11.50;;
4766;SDS011;2397;53.576;9.746;2023-02-22T13:12:07;18.33;;;11.57;;
4766;SDS011;2397;53.576;9.746;2023-02-22T13:14:46;20.17;;;11.10;;
4766;SDS011;2397;53.576;9.746;2023-02-22T13:17:46;18.50;;;11.40;;
4766;SDS011;2397;53.576;9.746;2023-02-22T13:20:27;18.93;;;13.17;;
4766;SDS011;2397;53.576;9.746;2023-02-22T13:28:19;20.17;;;11.70;;
4766;SDS011;2397;53.576;9.746;2023-02-22T13:34:20;17.50;;;11.63;;
4766;SDS011;2397;53.576;9.746;2023-02-22T13:37:25;22.47;;;11.70;;
4766;SDS011;2397;53.576;9.746;2023-02-22T13:43:33;20.30;;;12.10;;
4766;SDS011;2397;53.576;9.746;2023-02-22T13:49:30;16.60;;;11.10;;
4766;SDS011;2397;53.576;9.746;2023-02-22T13:52:13;16.20;;;10.90;;
4766;SDS011;2397;53.576;9.746;2023-02-22T13:54:43;20.67;;;10.37;;
4766;SDS011;2397;53.576;9.746;2023-02-22T13:57:17;17.10;;;10.50;;
4766;SDS011;2397;53.576;9.746;2023-02-22T13:59:48;22.93;;;10.60;;
4766;SDS011;2397;53.576;9.746;2023-02-22T14:10:59;22.17;;;10.30;;
4766;SDS011;2397;53.576;9.746;2023-02-22T14:13:27;14.20;;;9.63;;
4766;SDS011;2397;53.576;9.746;2023-02-22T14:18:26;15.07;;;9.77;;
4766;SDS011;2397;53.576;9.746;2023-02-22T14:21:04;15.80;;;10.50;;
4766;SDS011;2397;53.576;9.746;2023-02-22T14:26:09;17.47;;;10.37;;
4766;SDS011;2397;53.576;9.746;2023-02-22T14:31:24;14.27;;;9.30;;
4766;SDS011;2397;53.576;9.746;2023-02-22T14:37:18;15.97;;;10.50;;
4766;SDS011;2397;53.576;9.746;2023-02-22T14:42:35;15.10;;;9.17;;
4766;SDS011;2397;53.576;9.746;2023-02-22T14:47:55;15.60;;;8.40;;
4766;SDS011;2397;53.576;9.746;2023-02-22T14:53:07;12.80;;;8.37;;
4766;SDS011;2397;53.576;9.746;2023-02-22T14:58:35;14.63;;;8.53;;
4766;SDS011;2397;53.576;9.746;2023-02-22T15:04:25;14.07;;;9.30;;
4766;SDS011;2397;53.576;9.746;2023-02-22T15:06:54;28.40;;;9.70;;
4766;SDS011;2397;53.576;9.746;2023-02-22T15:09:23;22.40;;;9.93;;
4766;SDS011;2397;53.576;9.746;2023-02-22T15:14:29;18.57;;;9.83;;
4766;SDS011;2397;53.576;9.746;2023-02-22T15:16:59;23.23;;;10.40;;
4766;SDS011;2397;53.576;9.746;2023-02-22T15:19:30;28.17;;;11.83;;
4766;SDS011;2397;53.576;9.746;2023-02-22T15:21:58;19.80;;;11.47;;
4766;SDS011;2397;53.576;9.746;2023-02-22T15:24:27;25.20;;;11.20;;
4766;SDS011;2397;53.576;9.746;2023-02-22T15:27:04;26.27;;;10.80;;
4766;SDS011;2397;53.576;9.746;2023-02-22T15:29:42;24.23;;;9.93;;
4766;SDS011;2397;53.576;9.746;2023-02-22T15:32:19;25.47;;;10.03;;
4766;SDS011;2397;53.576;9.746;2023-02-22T15:35:06;18.47;;;9.30;;
4766;SDS011;2397;53.576;9.746;2023-02-22T15:37:42;34.40;;;11.10;;
4766;SDS011;2397;53.576;9.746;2023-02-22T15:40:17;26.43;;;10.57;;
4766;SDS011;2397;53.576;9.746;2023-02-22T15:42:47;20.23;;;10.87;;
4766;SDS011;2397;53.576;9.746;2023-02-22T15:45:16;21.90;;;10.30;;
4766;SDS011;2397;53.576;9.746;2023-02-22T15:47:45;28.50;;;10.90;;
4766;SDS011;2397;53.576;9.746;2023-02-22T15:50:15;20.60;;;10.20;;
4766;SDS011;2397;53.576;9.746;2023-02-22T15:55:19;32.10;;;10.97;;
4766;SDS011;2397;53.576;9.746;2023-02-22T15:57:50;20.47;;;10.40;;
4766;SDS011;2397;53.576;9.746;2023-02-22T16:00:18;16.80;;;9.63;;
4766;SDS011;2397;53.576;9.746;2023-02-22T16:03:02;21.33;;;10.23;;
4766;SDS011;2397;53.576;9.746;2023-02-22T16:05:38;13.77;;;8.87;;
4766;SDS011;2397;53.576;9.746;2023-02-22T16:08:16;13.83;;;9.03;;
4766;SDS011;2397;53.576;9.746;2023-02-22T16:10:52;14.07;;;8.40;;
4766;SDS011;2397;53.576;9.746;2023-02-22T16:13:31;20.33;;;8.97;;
4766;SDS011;2397;53.576;9.746;2023-02-22T16:19:14;18.03;;;9.53;;
4766;SDS011;2397;53.576;9.746;2023-02-22T16:22:22;12.60;;;8.50;;
4766;SDS011;2397;53.576;9.746;2023-02-22T16:32:50;16.20;;;10.30;;
4766;SDS011;2397;53.576;9.746;2023-02-22T16:35:18;21.83;;;10.97;;
4766;SDS011;2397;53.576;9.746;2023-02-22T16:37:48;20.50;;;12.07;;
4766;SDS011;2397;53.576;9.746;2023-02-22T16:43:03;17.20;;;10.10;;
4766;SDS011;2397;53.576;9.746;2023-02-22T16:45:32;20.50;;;10.63;;
4766;SDS011;2397;53.576;9.746;2023-02-22T16:47:59;19.60;;;12.13;;
4766;SDS011;2397;53.576;9.746;2023-02-22T16:50:25;18.83;;;11.73;;
4766;SDS011;2397;53.576;9.746;2023-02-22T16:52:52;16.93;;;11.70;;
4766;SDS011;2397;53.576;9.746;2023-02-22T16:55:20;20.50;;;12.40;;
4766;SDS011;2397;53.576;9.746;2023-02-22T16:57:47;17.53;;;12.07;;
4766;SDS011;2397;53.576;9.746;2023-02-22T17:00:19;23.60;;;13.60;;
4766;SDS011;2397;53.576;9.746;2023-02-22T17:02:57;30.77;;;13.67;;
4766;SDS011;2397;53.576;9.746;2023-02-22T17:05:23;20.40;;;13.20;;
4766;SDS011;2397;53.576;9.746;2023-02-22T17:07:50;21.90;;;12.63;;
4766;SDS011;2397;53.576;9.746;2023-02-22T17:10:17;21.30;;;12.80;;
4766;SDS011;2397;53.576;9.746;2023-02-22T17:12:44;18.40;;;11.77;;
4766;SDS011;2397;53.576;9.746;2023-02-22T17:15:15;17.57;;;11.80;;
4766;SDS011;2397;53.576;9.746;2023-02-22T17:17:47;19.70;;;13.53;;
4766;SDS011;2397;53.576;9.746;2023-02-22T17:20:14;20.57;;;12.77;;
4766;SDS011;2397;53.576;9.746;2023-02-22T17:22:40;21.70;;;13.13;;
4766;SDS011;2397;53.576;9.746;2023-02-22T17:25:27;19.43;;;12.80;;
4766;SDS011;2397;53.576;9.746;2023-02-22T17:27:57;20.37;;;13.50;;
4766;SDS011;2397;53.576;9.746;2023-02-22T17:30:24;21.80;;;12.77;;
4766;SDS011;2397;53.576;9.746;2023-02-22T17:32:51;20.67;;;13.40;;
4766;SDS011;2397;53.576;9.746;2023-02-22T17:35:18;18.03;;;11.70;;
4766;SDS011;2397;53.576;9.746;2023-02-22T17:37:48;21.13;;;12.70;;
4766;SDS011;2397;53.576;9.746;2023-02-22T17:40:15;19.97;;;13.40;;